Ewing Township, New Jersey
Current Conditions -  °F | °C
As of 11:53 PM on Tuesday 21 Oct 2014 (Local Time) from KTTN Reporting Station
Overcast Overcast  
Wind Chill: 55°   Ceiling: 12000
Heat Index: 55°   Visibility: 10mi
Dew Point: 49°   Wind: 8mph
Humidity: 80%   Direction: 10°N
Pressure: 29.88"   Gusts: NA
Location:  40.272°N, 74.8191°W
Report Text: KTTN 220353Z AUTO 01007KT 10SM OVC120 13/09 A2988 RMK AO2 LTG DSNT W SLP113 T01280094
Loading
Personal Weather Stations






























Interactive Weather Map
Tropical Storm Tracking
New forecast layout! Learn more

10-Day Weather Forecast

Advertisements
Track Severe Weather on mobile